Time;durP1;ratioP1;P1;durP2;ratioP2;P2;SDS_P1;SDS_P2;PMS_P1;PMS_P2;Temp;Humidity;BMP_temperature;BMP_pressure;BME280_temperature;BME280_humidity;BME280_pressure;Samples;Min_cycle;Max_cycle;Signal;HPM_P1;HPM_P2
2021/08/22 00:01:41;;;;;;;107.20;61.83;;;17.80;99.90;;;;;;4204548;28;20029;-72
2021/08/22 00:03:42;;;;;;;102.80;65.45;;;17.80;99.90;;;;;;4193662;28;20073;-71
2021/08/22 00:05:43;;;;;;;115.13;65.25;;;17.90;99.90;;;;;;4188747;28;20035;-73
2021/08/22 00:07:43;;;;;;;108.40;65.00;;;18.00;99.90;;;;;;4210972;28;20041;-71
2021/08/22 00:09:44;;;;;;;100.32;61.60;;;18.00;99.90;;;;;;4189613;28;20040;-70
2021/08/22 00:11:44;;;;;;;92.68;61.80;;;18.00;99.90;;;;;;4190352;28;20514;-71
2021/08/22 00:13:45;;;;;;;92.32;59.00;;;18.00;99.90;;;;;;4208319;28;20060;-71
2021/08/22 00:15:46;;;;;;;86.13;57.28;;;18.00;99.90;;;;;;4194857;28;20090;-72
2021/08/22 00:17:47;;;;;;;94.10;59.20;;;17.90;99.90;;;;;;4208469;28;20147;-71
2021/08/22 00:19:48;;;;;;;84.38;55.70;;;17.90;99.90;;;;;;4210199;28;20044;-72
2021/08/22 00:21:49;;;;;;;80.00;52.95;;;17.90;99.90;;;;;;4210370;28;20149;-71
2021/08/22 00:23:50;;;;;;;85.18;54.30;;;17.90;99.90;;;;;;4210788;28;20473;-71
2021/08/22 00:25:50;;;;;;;77.82;54.45;;;17.90;99.90;;;;;;4210026;28;20020;-72
2021/08/22 00:27:51;;;;;;;81.95;55.25;;;18.00;99.90;;;;;;4211646;28;20417;-72
2021/08/22 00:29:52;;;;;;;69.00;47.45;;;17.90;99.90;;;;;;4210708;28;20081;-70
2021/08/22 00:31:52;;;;;;;65.47;48.22;;;17.90;99.90;;;;;;4210174;28;20024;-72
2021/08/22 00:33:53;;;;;;;70.90;47.10;;;17.90;99.90;;;;;;4187659;28;20033;-72
2021/08/22 00:35:53;;;;;;;73.97;48.72;;;17.80;99.90;;;;;;4211410;28;20541;-70
2021/08/22 00:37:54;;;;;;;68.43;45.40;;;17.80;99.90;;;;;;4192078;28;20186;-72
2021/08/22 00:39:57;;;;;;;60.42;42.10;;;17.80;99.90;;;;;;4211623;28;20036;-73
2021/08/22 00:41:58;;;;;;;64.45;43.47;;;17.70;99.90;;;;;;4207349;28;20357;-70
2021/08/22 00:43:59;;;;;;;60.08;44.63;;;17.70;99.90;;;;;;4207601;28;20040;-72
2021/08/22 00:45:59;;;;;;;59.15;42.50;;;17.70;99.90;;;;;;4209245;28;20119;-72
2021/08/22 00:48:00;;;;;;;62.35;42.67;;;17.70;99.90;;;;;;4209922;28;20024;-72
2021/08/22 00:50:01;;;;;;;66.05;43.88;;;17.60;99.90;;;;;;4192165;28;20032;-73
2021/08/22 00:52:04;;;;;;;59.65;44.47;;;17.70;99.90;;;;;;4189424;28;20134;-73
2021/08/22 00:54:04;;;;;;;59.83;43.80;;;17.70;99.90;;;;;;4209439;28;20032;-72
2021/08/22 00:56:05;;;;;;;65.63;40.63;;;17.70;99.90;;;;;;4211341;28;20032;-73
2021/08/22 00:58:06;;;;;;;67.38;42.83;;;17.70;99.90;;;;;;4209825;28;20085;-72
2021/08/22 01:00:12;;;;;;;63.88;43.63;;;17.70;99.90;;;;;;4204229;28;20021;-73
2021/08/22 01:02:30;;;;;;;65.50;42.97;;;17.70;99.90;;;;;;4189981;28;20028;-73
2021/08/22 01:04:50;;;;;;;55.15;40.35;;;17.70;99.90;;;;;;4205154;28;20036;-73
2021/08/22 01:06:56;;;;;;;59.22;43.65;;;17.70;99.90;;;;;;4208735;28;20111;-73
2021/08/22 01:09:20;;;;;;;54.50;39.90;;;17.70;99.90;;;;;;4204166;28;20499;-72
2021/08/22 01:11:24;;;;;;;54.22;39.85;;;17.70;99.90;;;;;;4205412;28;20793;-73
2021/08/22 01:13:28;;;;;;;60.15;41.28;;;17.70;99.90;;;;;;4192347;28;20043;-74
2021/08/22 01:15:32;;;;;;;54.97;40.50;;;17.60;99.90;;;;;;4210871;28;20047;-72
2021/08/22 01:17:35;;;;;;;50.20;36.85;;;17.60;99.90;;;;;;4187244;28;20032;-72
2021/08/22 01:19:51;;;;;;;50.08;36.20;;;17.60;99.90;;;;;;4206827;28;20114;-73
2021/08/22 01:21:53;;;;;;;51.72;37.53;;;17.60;99.90;;;;;;4202978;28;20483;-71
2021/08/22 01:23:56;;;;;;;47.07;35.73;;;17.60;99.90;;;;;;4202468;28;20040;-73
2021/08/22 01:25:58;;;;;;;60.70;37.78;;;17.50;99.90;;;;;;4204472;28;20381;-72
2021/08/22 01:28:00;;;;;;;53.33;37.27;;;17.50;99.90;;;;;;4186764;28;20044;-72
2021/08/22 01:30:05;;;;;;;59.17;39.67;;;17.40;99.90;;;;;;4205844;28;20345;-73
2021/08/22 01:32:08;;;;;;;57.65;40.20;;;17.50;99.90;;;;;;4205664;28;20025;-73
2021/08/22 01:34:09;;;;;;;62.00;40.00;;;17.40;99.90;;;;;;4201349;28;20055;-73
2021/08/22 01:36:11;;;;;;;60.97;39.30;;;17.40;99.90;;;;;;4207059;28;20040;-73
2021/08/22 01:38:13;;;;;;;59.05;39.35;;;17.40;99.90;;;;;;4210462;28;20107;-72
2021/08/22 01:40:18;;;;;;;49.55;37.00;;;17.30;99.90;;;;;;4194409;28;20119;-72
2021/08/22 01:42:19;;;;;;;55.17;35.58;;;17.30;99.90;;;;;;4213895;28;20431;-72
2021/08/22 01:44:20;;;;;;;55.72;37.05;;;17.30;99.90;;;;;;4211200;28;20032;-71
2021/08/22 01:46:42;;;;;;;54.28;35.30;;;17.30;99.90;;;;;;4207907;28;20047;-72
2021/08/22 01:48:43;;;;;;;48.80;34.35;;;17.30;99.90;;;;;;4211616;28;20025;-72
2021/08/22 01:50:45;;;;;;;50.78;33.55;;;17.20;99.90;;;;;;4213680;28;20428;-72
2021/08/22 01:52:47;;;;;;;65.03;36.00;;;17.10;99.90;;;;;;4213152;28;20028;-72
2021/08/22 01:54:48;;;;;;;57.38;35.45;;;17.00;99.90;;;;;;4213791;28;20133;-73
2021/08/22 01:56:49;;;;;;;57.47;33.08;;;17.00;99.90;;;;;;4212509;28;20036;-73
2021/08/22 01:58:49;;;;;;;52.00;33.10;;;17.10;99.90;;;;;;4208488;28;20032;-73
2021/08/22 02:00:51;;;;;;;54.08;33.35;;;17.20;99.90;;;;;;4213100;28;20374;-72
2021/08/22 02:03:17;;;;;;;48.50;31.50;;;17.20;99.90;;;;;;4192201;28;20041;-72
2021/08/22 02:05:19;;;;;;;50.42;30.58;;;17.20;99.90;;;;;;4212607;28;20097;-73
2021/08/22 02:07:23;;;;;;;47.97;32.55;;;17.20;99.90;;;;;;4196208;28;20036;-73
2021/08/22 02:09:44;;;;;;;49.38;31.27;;;17.10;99.90;;;;;;4195824;28;20044;-72
2021/08/22 02:11:50;;;;;;;50.97;30.55;;;17.20;99.90;;;;;;4212703;28;20491;-72
2021/08/22 02:13:54;;;;;;;62.88;34.13;;;17.20;99.90;;;;;;4209842;28;20054;-73
2021/08/22 02:15:58;;;;;;;50.50;33.08;;;17.20;99.90;;;;;;4211289;28;20066;-73
2021/08/22 02:18:07;;;;;;;50.80;32.50;;;17.10;99.90;;;;;;4208039;28;20027;-73
2021/08/22 02:20:08;;;;;;;49.38;32.88;;;17.10;99.90;;;;;;4211398;28;20059;-73
2021/08/22 02:22:09;;;;;;;62.72;36.28;;;17.10;99.90;;;;;;4211427;28;21530;-73
2021/08/22 02:24:10;;;;;;;56.67;33.85;;;17.10;99.90;;;;;;4212001;28;20046;-74
2021/08/22 02:26:11;;;;;;;62.92;35.95;;;17.10;99.90;;;;;;4212715;28;20612;-73
2021/08/22 02:28:11;;;;;;;62.45;37.00;;;17.10;99.90;;;;;;4206772;28;20064;-73
2021/08/22 02:30:13;;;;;;;65.22;37.15;;;17.10;99.90;;;;;;4186998;28;20028;-73
2021/08/22 02:32:14;;;;;;;63.25;36.03;;;17.10;99.90;;;;;;4195535;28;20025;-73
2021/08/22 02:34:14;;;;;;;60.15;36.00;;;17.10;99.90;;;;;;4208646;28;20036;-72
2021/08/22 02:36:15;;;;;;;59.17;38.05;;;17.10;99.90;;;;;;4213039;28;20055;-73
2021/08/22 02:38:16;;;;;;;71.90;37.03;;;17.00;99.90;;;;;;4205917;28;20024;-73
2021/08/22 02:40:16;;;;;;;66.47;38.20;;;17.10;99.90;;;;;;4209731;28;20025;-73
2021/08/22 02:42:17;;;;;;;73.65;39.00;;;17.00;99.90;;;;;;4207830;28;20040;-72
2021/08/22 02:44:18;;;;;;;66.50;38.97;;;17.00;99.90;;;;;;4213736;28;20557;-71
2021/08/22 02:46:19;;;;;;;75.80;39.53;;;16.90;99.90;;;;;;4192722;28;20041;-72
2021/08/22 02:48:19;;;;;;;68.72;38.53;;;16.90;99.90;;;;;;4203278;28;20090;-71
2021/08/22 02:50:20;;;;;;;65.57;38.17;;;16.90;99.90;;;;;;4206712;28;20035;-72
2021/08/22 02:52:20;;;;;;;66.90;40.05;;;16.80;99.90;;;;;;4204006;28;20512;-72
2021/08/22 02:54:21;;;;;;;66.72;38.05;;;16.80;99.90;;;;;;4193572;28;20040;-72
2021/08/22 02:56:21;;;;;;;67.43;37.53;;;16.80;99.90;;;;;;4207427;28;20039;-73
2021/08/22 02:58:22;;;;;;;73.38;39.75;;;16.70;99.90;;;;;;4212205;28;20066;-73
2021/08/22 03:00:23;;;;;;;67.80;36.22;;;16.70;99.90;;;;;;4192013;28;20060;-73
2021/08/22 03:02:24;;;;;;;68.85;36.03;;;16.70;99.90;;;;;;4193711;28;20040;-73
2021/08/22 03:04:24;;;;;;;63.95;35.65;;;16.70;99.90;;;;;;4210676;28;20414;-73
2021/08/22 03:06:25;;;;;;;66.50;34.15;;;16.70;99.90;;;;;;4211073;28;20056;-73
2021/08/22 03:08:25;;;;;;;65.45;36.85;;;16.60;99.90;;;;;;4191692;28;20480;-75
2021/08/22 03:10:26;;;;;;;68.57;35.50;;;16.60;99.90;;;;;;4211006;28;20124;-76
2021/08/22 03:12:27;;;;;;;65.90;36.15;;;16.60;99.90;;;;;;4193300;28;20485;-76
2021/08/22 03:14:27;;;;;;;66.75;36.08;;;16.70;99.90;;;;;;4210580;28;20450;-76
2021/08/22 03:16:28;;;;;;;63.17;35.08;;;16.70;99.90;;;;;;4187063;28;20036;-76
2021/08/22 03:18:29;;;;;;;68.47;35.78;;;16.80;99.90;;;;;;4196236;28;20029;-77
2021/08/22 03:20:30;;;;;;;68.03;35.60;;;16.70;99.90;;;;;;4206447;28;20062;-78
2021/08/22 03:22:31;;;;;;;72.63;37.80;;;16.70;99.90;;;;;;4212517;28;20081;-77
2021/08/22 03:24:32;;;;;;;74.82;37.28;;;16.70;99.90;;;;;;4207489;28;20081;-77
2021/08/22 03:26:32;;;;;;;75.07;37.28;;;16.60;99.90;;;;;;4210509;28;20039;-77
2021/08/22 03:28:33;;;;;;;77.97;38.50;;;16.60;99.90;;;;;;4208196;28;20386;-77
2021/08/22 03:30:34;;;;;;;81.47;39.67;;;16.60;99.90;;;;;;4194989;28;20443;-77
2021/08/22 03:32:35;;;;;;;79.63;38.95;;;16.60;99.90;;;;;;4189681;28;20066;-77
2021/08/22 03:34:35;;;;;;;72.78;40.22;;;16.60;99.90;;;;;;4213091;28;20090;-78
2021/08/22 03:36:37;;;;;;;77.70;41.08;;;16.60;99.90;;;;;;4210878;28;20119;-77
2021/08/22 03:38:37;;;;;;;81.50;40.35;;;16.60;99.90;;;;;;4187798;28;20074;-77
2021/08/22 03:40:38;;;;;;;85.28;41.38;;;16.60;99.90;;;;;;4193088;28;20033;-77
2021/08/22 03:42:39;;;;;;;80.07;39.33;;;16.60;99.90;;;;;;4206996;28;20472;-78
2021/08/22 03:44:39;;;;;;;86.60;41.60;;;16.60;99.90;;;;;;4211004;28;20036;-76
2021/08/22 03:46:40;;;;;;;86.50;42.25;;;16.60;99.90;;;;;;4189104;28;20188;-75
2021/08/22 03:48:40;;;;;;;84.10;40.78;;;16.50;99.90;;;;;;4210128;28;20028;-76
2021/08/22 03:50:41;;;;;;;82.82;39.95;;;16.40;99.90;;;;;;4188274;28;20136;-76
2021/08/22 03:52:42;;;;;;;85.40;39.70;;;16.40;99.90;;;;;;4210814;28;20110;-77
2021/08/22 03:54:42;;;;;;;79.68;37.42;;;16.50;99.90;;;;;;4207367;28;20036;-77
2021/08/22 03:56:43;;;;;;;88.55;40.55;;;16.50;99.90;;;;;;4210610;28;20059;-77
2021/08/22 03:58:43;;;;;;;87.15;40.88;;;16.40;99.90;;;;;;4212169;28;20063;-78
2021/08/22 04:00:44;;;;;;;90.25;41.45;;;16.40;99.90;;;;;;4205054;28;20089;-76
2021/08/22 04:02:45;;;;;;;88.03;40.03;;;16.40;99.90;;;;;;4209350;28;20047;-76
2021/08/22 04:04:46;;;;;;;80.72;39.50;;;16.50;99.90;;;;;;4205561;28;20530;-75
2021/08/22 04:06:50;;;;;;;82.32;40.28;;;16.60;99.90;;;;;;4211265;28;20054;-76
2021/08/22 04:08:51;;;;;;;86.30;41.15;;;16.60;99.90;;;;;;4194234;28;20052;-77
2021/08/22 04:10:52;;;;;;;81.47;40.22;;;16.70;99.90;;;;;;4204267;28;20040;-77
2021/08/22 04:12:56;;;;;;;91.55;43.10;;;16.70;99.90;;;;;;4212171;28;20589;-76
2021/08/22 04:14:57;;;;;;;93.03;44.80;;;16.70;99.90;;;;;;4209328;28;20095;-75
2021/08/22 04:16:57;;;;;;;100.00;43.83;;;16.70;99.90;;;;;;4210783;28;20066;-76
2021/08/22 04:18:58;;;;;;;104.82;44.08;;;16.70;99.90;;;;;;4205992;28;20055;-76
2021/08/22 04:20:59;;;;;;;99.32;42.63;;;16.60;99.90;;;;;;4208515;28;20503;-76
2021/08/22 04:23:01;;;;;;;102.53;43.88;;;16.70;99.90;;;;;;4188009;28;20124;-76
2021/08/22 04:25:07;;;;;;;97.05;43.40;;;16.70;99.90;;;;;;4212117;28;20032;-78
2021/08/22 04:27:08;;;;;;;112.53;50.28;;;16.60;99.90;;;;;;4191086;28;20094;-77
2021/08/22 04:29:09;;;;;;;99.80;48.85;;;16.70;99.90;;;;;;4193456;28;20024;-75
2021/08/22 04:31:10;;;;;;;104.05;50.10;;;16.60;99.90;;;;;;4208601;28;20415;-76
2021/08/22 04:33:11;;;;;;;109.63;50.70;;;16.60;99.90;;;;;;4204629;28;20036;-77
2021/08/22 04:35:11;;;;;;;107.90;47.40;;;16.70;99.90;;;;;;4207798;28;20040;-77
2021/08/22 04:37:12;;;;;;;107.40;50.38;;;16.70;99.90;;;;;;4193828;28;20025;-76
2021/08/22 04:39:13;;;;;;;108.53;47.50;;;16.70;99.90;;;;;;4210649;28;20112;-77
2021/08/22 04:41:19;;;;;;;109.40;48.55;;;16.70;99.90;;;;;;4211042;28;20028;-76
2021/08/22 04:43:19;;;;;;;114.07;51.47;;;16.70;99.90;;;;;;4210749;28;20066;-77
2021/08/22 04:45:20;;;;;;;100.78;47.55;;;16.70;99.90;;;;;;4207121;28;20036;-75
2021/08/22 04:47:21;;;;;;;109.68;50.22;;;16.70;99.90;;;;;;4211918;28;20047;-77
2021/08/22 04:49:21;;;;;;;115.30;52.25;;;16.70;99.90;;;;;;4205579;28;20452;-76
2021/08/22 04:51:22;;;;;;;110.55;51.95;;;16.70;99.90;;;;;;4208802;28;20115;-76
2021/08/22 04:53:22;;;;;;;107.97;50.20;;;16.70;99.90;;;;;;4208519;28;20035;-76
2021/08/22 04:55:23;;;;;;;113.63;50.03;;;16.70;99.90;;;;;;4209822;28;20032;-77
2021/08/22 04:57:23;;;;;;;118.75;52.28;;;16.70;99.90;;;;;;4209872;28;20375;-77
2021/08/22 04:59:24;;;;;;;118.68;53.85;;;16.70;99.90;;;;;;4194247;28;20132;-75
2021/08/22 05:01:25;;;;;;;122.90;53.47;;;16.80;99.90;;;;;;4210139;28;20545;-76
2021/08/22 05:03:26;;;;;;;122.82;51.15;;;16.80;99.90;;;;;;4211159;28;20488;-78
2021/08/22 05:05:26;;;;;;;119.15;51.35;;;16.90;99.90;;;;;;4191139;28;20404;-77
2021/08/22 05:07:27;;;;;;;133.63;55.25;;;16.80;99.90;;;;;;4192266;28;20172;-75
2021/08/22 05:09:28;;;;;;;132.40;53.72;;;16.80;99.90;;;;;;4191471;28;20032;-76
2021/08/22 05:11:28;;;;;;;133.68;57.20;;;16.80;99.90;;;;;;4212944;28;20044;-77
2021/08/22 05:13:29;;;;;;;126.72;57.00;;;16.90;99.90;;;;;;4192755;28;20028;-78
2021/08/22 05:15:29;;;;;;;133.32;55.33;;;16.90;99.90;;;;;;4213689;28;20039;-78
2021/08/22 05:17:30;;;;;;;121.85;56.40;;;16.90;99.90;;;;;;4206767;28;20395;-76
2021/08/22 05:19:31;;;;;;;129.63;55.95;;;16.80;99.90;;;;;;4212722;28;20040;-77
2021/08/22 05:21:32;;;;;;;129.82;57.10;;;16.80;99.90;;;;;;4192037;28;20071;-76
2021/08/22 05:23:32;;;;;;;118.45;51.83;;;16.70;99.90;;;;;;4197712;28;20048;-77
2021/08/22 05:25:33;;;;;;;127.78;53.67;;;16.70;99.90;;;;;;4210417;28;20495;-77
2021/08/22 05:27:33;;;;;;;145.77;60.88;;;16.70;99.90;;;;;;4214673;28;20032;-78
2021/08/22 05:29:34;;;;;;;137.93;58.20;;;16.70;99.90;;;;;;4212704;28;20036;-77
2021/08/22 05:31:36;;;;;;;137.55;58.90;;;16.70;99.90;;;;;;4206999;28;20119;-77
2021/08/22 05:33:36;;;;;;;139.63;58.58;;;16.70;99.90;;;;;;4194925;28;20423;-76
2021/08/22 05:35:37;;;;;;;146.20;59.85;;;16.70;99.90;;;;;;4197054;28;20044;-76
2021/08/22 05:37:38;;;;;;;139.40;59.50;;;16.80;99.90;;;;;;4194923;28;20041;-76
2021/08/22 05:39:39;;;;;;;137.13;61.13;;;16.80;99.90;;;;;;4207109;28;20043;-76
2021/08/22 05:41:39;;;;;;;135.98;57.17;;;16.90;99.90;;;;;;4212715;28;20035;-76
2021/08/22 05:43:40;;;;;;;136.52;60.17;;;16.90;99.90;;;;;;4209393;28;20067;-77
2021/08/22 05:45:40;;;;;;;130.07;58.15;;;17.00;99.90;;;;;;4212252;28;20121;-77
2021/08/22 05:47:41;;;;;;;134.52;60.50;;;17.10;99.90;;;;;;4211120;28;20036;-75
2021/08/22 05:49:42;;;;;;;131.05;57.67;;;17.10;99.90;;;;;;4212077;28;20024;-77
2021/08/22 05:51:44;;;;;;;136.20;61.15;;;17.20;99.90;;;;;;4196167;28;20033;-77
2021/08/22 05:53:46;;;;;;;128.13;57.90;;;17.20;99.90;;;;;;4207677;28;20043;-78
2021/08/22 05:55:47;;;;;;;123.30;56.20;;;17.30;99.90;;;;;;4194261;28;20131;-78
2021/08/22 05:57:48;;;;;;;120.95;55.85;;;17.40;99.90;;;;;;4207251;28;20032;-78
2021/08/22 05:59:48;;;;;;;125.18;55.20;;;17.40;99.90;;;;;;4210648;28;20089;-76
2021/08/22 06:01:49;;;;;;;129.93;60.78;;;17.50;99.90;;;;;;4213937;28;20040;-76
2021/08/22 06:03:49;;;;;;;124.10;57.97;;;17.50;99.90;;;;;;4207610;28;20039;-77
2021/08/22 06:05:50;;;;;;;116.43;56.53;;;17.60;99.90;;;;;;4193996;28;20062;-74
2021/08/22 06:07:50;;;;;;;115.30;56.10;;;17.60;99.90;;;;;;4209849;28;20040;-77
2021/08/22 06:09:51;;;;;;;121.60;55.72;;;17.70;99.90;;;;;;4212524;28;20036;-76
2021/08/22 06:11:53;;;;;;;105.05;51.50;;;17.70;99.90;;;;;;4206763;28;20111;-76
2021/08/22 06:13:53;;;;;;;101.47;52.40;;;17.70;99.90;;;;;;4214432;28;20029;-77
2021/08/22 06:15:54;;;;;;;104.55;52.50;;;17.60;99.90;;;;;;4216682;28;20388;-77
2021/08/22 06:17:55;;;;;;;90.53;49.28;;;17.70;99.90;;;;;;4211812;28;20538;-76
2021/08/22 06:19:56;;;;;;;103.93;54.15;;;17.70;99.90;;;;;;4209658;28;20525;-77
2021/08/22 06:21:57;;;;;;;89.43;52.67;;;17.70;99.90;;;;;;4208634;28;20376;-77
2021/08/22 06:23:58;;;;;;;92.82;48.90;;;17.80;99.90;;;;;;4209923;28;20029;-76
2021/08/22 06:25:59;;;;;;;87.70;51.85;;;17.80;99.90;;;;;;4212235;28;20492;-77
2021/08/22 06:28:00;;;;;;;91.63;52.55;;;17.80;99.90;;;;;;4193604;28;20107;-75
2021/08/22 06:30:00;;;;;;;74.63;46.17;;;17.80;99.90;;;;;;4211444;28;20492;-78
2021/08/22 06:32:01;;;;;;;78.93;49.85;;;17.80;99.90;;;;;;4210969;28;20368;-77
2021/08/22 06:34:02;;;;;;;72.03;45.20;;;17.80;99.90;;;;;;4213469;28;20028;-77
2021/08/22 06:36:03;;;;;;;73.80;42.40;;;17.80;99.90;;;;;;4213052;28;20031;-77
2021/08/22 06:38:04;;;;;;;62.55;41.95;;;17.90;99.90;;;;;;4206094;28;20037;-77
2021/08/22 06:40:06;;;;;;;61.15;39.30;;;17.90;99.90;;;;;;4195539;28;20024;-76
2021/08/22 06:42:07;;;;;;;64.15;43.55;;;17.90;99.90;;;;;;4189003;28;20040;-77
2021/08/22 06:44:07;;;;;;;56.50;40.00;;;17.90;99.90;;;;;;4210282;28;20471;-77
2021/08/22 06:46:08;;;;;;;52.85;37.65;;;17.90;99.90;;;;;;4207733;28;20077;-75
2021/08/22 06:48:11;;;;;;;53.42;36.30;;;17.90;99.90;;;;;;4194800;28;20064;-77
2021/08/22 06:50:11;;;;;;;49.70;35.72;;;18.00;99.90;;;;;;4191221;28;20036;-76
2021/08/22 06:52:12;;;;;;;50.33;36.25;;;18.00;99.90;;;;;;4192600;28;20526;-75
2021/08/22 06:54:13;;;;;;;45.70;33.85;;;18.00;99.90;;;;;;4213695;28;20036;-74
2021/08/22 06:56:13;;;;;;;58.63;42.50;;;17.90;99.90;;;;;;4214756;28;20028;-75
2021/08/22 06:58:14;;;;;;;67.70;49.28;;;17.80;99.90;;;;;;4194190;28;20032;-76
2021/08/22 07:00:15;;;;;;;60.65;45.13;;;17.80;99.90;;;;;;4212965;28;20040;-77
2021/08/22 07:02:16;;;;;;;45.03;35.80;;;17.80;99.90;;;;;;4213353;28;20060;-76
2021/08/22 07:04:16;;;;;;;41.78;34.53;;;17.80;99.90;;;;;;4209437;28;20040;-77
2021/08/22 07:06:18;;;;;;;46.67;33.63;;;17.90;99.90;;;;;;4205802;28;20135;-76
2021/08/22 07:08:19;;;;;;;47.55;35.15;;;17.90;99.90;;;;;;4213550;28;20491;-76
2021/08/22 07:10:20;;;;;;;53.22;36.40;;;18.00;99.90;;;;;;4208674;28;20120;-76
2021/08/22 07:12:20;;;;;;;45.25;33.78;;;18.00;99.90;;;;;;4212317;28;20056;-77
2021/08/22 07:14:21;;;;;;;44.45;35.35;;;18.00;99.90;;;;;;4191804;28;20093;-76
2021/08/22 07:16:21;;;;;;;46.53;36.15;;;18.00;99.90;;;;;;4212382;28;20541;-76
2021/08/22 07:18:22;;;;;;;44.63;35.60;;;18.00;99.90;;;;;;4193015;28;20055;-76
2021/08/22 07:20:22;;;;;;;50.80;37.92;;;17.90;99.90;;;;;;4207375;28;20028;-73
2021/08/22 07:22:23;;;;;;;48.10;37.47;;;17.90;99.90;;;;;;4196368;28;20421;-76
2021/08/22 07:24:24;;;;;;;43.15;35.38;;;17.90;99.90;;;;;;4188744;28;20156;-77
2021/08/22 07:26:25;;;;;;;42.10;34.28;;;18.00;99.90;;;;;;4212727;28;20044;-77
2021/08/22 07:28:25;;;;;;;50.03;37.10;;;18.00;99.90;;;;;;4207047;28;20552;-77
2021/08/22 07:30:26;;;;;;;43.72;35.40;;;18.00;99.90;;;;;;4194828;28;20091;-77
2021/08/22 07:32:26;;;;;;;41.00;35.10;;;18.10;99.90;;;;;;4193735;28;20067;-77
2021/08/22 07:34:27;;;;;;;44.75;35.97;;;18.10;99.90;;;;;;4196159;28;20539;-77
2021/08/22 07:36:28;;;;;;;48.65;35.60;;;18.10;99.90;;;;;;4207047;28;20039;-76
2021/08/22 07:38:29;;;;;;;46.33;35.35;;;18.10;99.90;;;;;;4209367;28;20119;-76
2021/08/22 07:40:30;;;;;;;42.78;34.63;;;18.10;99.90;;;;;;4188850;28;20036;-76
2021/08/22 07:42:30;;;;;;;42.85;33.83;;;18.20;99.90;;;;;;4213634;28;20133;-76
2021/08/22 07:44:31;;;;;;;47.17;35.42;;;18.10;99.90;;;;;;4208292;28;20032;-76
2021/08/22 07:46:32;;;;;;;44.78;34.55;;;18.20;99.90;;;;;;4211685;28;20086;-76
2021/08/22 07:48:32;;;;;;;44.97;35.58;;;18.20;99.90;;;;;;4209334;28;20028;-76
2021/08/22 07:50:33;;;;;;;41.75;34.90;;;18.20;99.90;;;;;;4187786;28;20049;-76
2021/08/22 07:52:34;;;;;;;43.20;35.40;;;18.20;99.90;;;;;;4210849;28;20635;-76
2021/08/22 07:54:34;;;;;;;42.92;34.05;;;18.30;99.90;;;;;;4214812;28;21476;-76
2021/08/22 07:56:39;;;;;;;37.15;33.00;;;18.40;99.90;;;;;;4210256;28;20395;-76
2021/08/22 07:58:40;;;;;;;39.88;33.22;;;18.50;99.90;;;;;;4215204;28;20085;-76
2021/08/22 08:00:40;;;;;;;42.38;32.70;;;18.50;99.90;;;;;;4210226;28;20667;-76
2021/08/22 08:02:41;;;;;;;40.55;31.42;;;18.50;99.90;;;;;;4209221;28;20057;-76
2021/08/22 08:04:41;;;;;;;35.13;29.52;;;18.50;99.90;;;;;;4213290;28;20441;-77
2021/08/22 08:06:42;;;;;;;38.90;30.52;;;18.60;99.90;;;;;;4209019;28;20154;-77
2021/08/22 08:08:42;;;;;;;34.10;30.08;;;18.60;99.90;;;;;;4210339;28;20479;-77
2021/08/22 08:10:43;;;;;;;33.70;28.90;;;18.70;99.90;;;;;;4209977;28;20345;-77
2021/08/22 08:12:44;;;;;;;33.45;27.77;;;18.80;99.90;;;;;;4194534;28;20064;-75
2021/08/22 08:14:45;;;;;;;31.08;26.65;;;18.80;99.90;;;;;;4191530;28;20557;-74
2021/08/22 08:16:46;;;;;;;32.58;26.90;;;19.00;99.90;;;;;;4209181;28;20028;-76
2021/08/22 08:18:47;;;;;;;32.38;27.33;;;19.00;99.90;;;;;;4210641;28;20028;-76
2021/08/22 08:20:47;;;;;;;36.03;27.30;;;19.00;99.90;;;;;;4210907;28;20043;-76
2021/08/22 08:22:48;;;;;;;30.40;24.05;;;19.10;99.90;;;;;;4206638;28;20394;-76
2021/08/22 08:24:49;;;;;;;30.38;25.52;;;19.20;99.90;;;;;;4211197;28;20349;-76
2021/08/22 08:26:49;;;;;;;30.15;26.75;;;19.20;99.90;;;;;;4212238;28;20032;-76
2021/08/22 08:28:50;;;;;;;32.53;28.67;;;19.30;99.90;;;;;;4211956;28;20039;-75
2021/08/22 08:30:50;;;;;;;30.35;27.08;;;19.30;99.90;;;;;;4193701;28;20052;-75
2021/08/22 08:32:51;;;;;;;28.13;25.10;;;19.40;99.90;;;;;;4213818;28;20361;-75
2021/08/22 08:34:52;;;;;;;28.92;25.15;;;19.30;99.90;;;;;;4187136;28;20500;-77
2021/08/22 08:36:52;;;;;;;29.58;26.48;;;19.40;99.90;;;;;;4195381;28;20025;-76
2021/08/22 08:38:53;;;;;;;29.38;26.17;;;19.50;99.90;;;;;;4189124;28;20045;-76
2021/08/22 08:40:53;;;;;;;28.83;25.92;;;19.60;99.90;;;;;;4212759;28;20035;-75
2021/08/22 08:42:58;;;;;;;28.95;25.27;;;19.60;99.90;;;;;;4187449;28;20048;-76
2021/08/22 08:44:59;;;;;;;32.50;25.10;;;19.60;99.90;;;;;;4208887;28;20036;-74
2021/08/22 08:47:01;;;;;;;27.30;24.58;;;19.60;99.90;;;;;;4209606;28;20159;-75
2021/08/22 08:49:29;;;;;;;27.52;24.65;;;19.60;99.90;;;;;;4211125;28;20039;-75
2021/08/22 08:51:35;;;;;;;25.92;23.27;;;19.50;99.90;;;;;;4213608;28;20032;-75
2021/08/22 08:53:59;;;;;;;26.65;23.88;;;19.60;99.90;;;;;;4196672;28;20041;-75
2021/08/22 08:56:06;;;;;;;27.00;21.95;;;19.90;99.90;;;;;;4215333;28;20036;-76
2021/08/22 08:58:07;;;;;;;26.10;23.30;;;;;;;;;;4214570;28;20054;-75
2021/08/22 09:00:28;;;;;;;24.15;21.58;;;22.20;99.90;;;;;;4210559;28;20036;-76
2021/08/22 09:02:29;;;;;;;24.02;21.67;;;;;;;;;;4215666;28;20036;-76
2021/08/22 09:04:31;;;;;;;25.77;22.38;;;20.90;99.90;;;;;;4217288;28;20040;-76
2021/08/22 09:07:10;;;;;;;23.40;21.10;;;21.10;99.90;;;;;;4214361;28;20062;-75
2021/08/22 09:09:29;;;;;;;29.17;22.63;;;21.20;99.90;;;;;;4208479;28;20052;-75
2021/08/22 09:12:04;;;;;;;25.08;20.75;;;21.20;99.90;;;;;;4213266;28;20036;-76
2021/08/22 09:14:30;;;;;;;22.92;20.55;;;21.20;99.90;;;;;;4208031;28;20162;-76
2021/08/22 09:17:08;;;;;;;22.83;20.52;;;21.10;99.90;;;;;;4214664;28;20036;-76
2021/08/22 09:19:47;;;;;;;24.38;19.10;;;21.20;99.90;;;;;;4214429;28;20035;-76
2021/08/22 09:22:09;;;;;;;20.75;17.55;;;21.30;99.90;;;;;;4213788;28;20044;-76
2021/08/22 09:24:30;;;;;;;20.92;18.75;;;21.30;99.90;;;;;;4215033;28;20044;-77
2021/08/22 09:26:40;;;;;;;21.25;19.00;;;21.30;99.90;;;;;;4212183;28;20540;-75
2021/08/22 09:29:15;;;;;;;19.75;17.83;;;21.60;99.90;;;;;;4189928;28;20056;-75
2021/08/22 09:31:40;;;;;;;19.10;17.27;;;22.00;99.90;;;;;;4208820;28;20024;-77
2021/08/22 09:34:22;;;;;;;18.70;16.88;;;22.40;99.90;;;;;;4207017;28;20417;-77
2021/08/22 09:36:25;;;;;;;17.33;15.55;;;;;;;;;;4197252;28;20041;-76
2021/08/22 09:39:04;;;;;;;24.20;21.63;;;22.90;99.90;;;;;;4214755;28;20400;-76
2021/08/22 09:41:41;;;;;;;20.15;17.92;;;22.90;99.90;;;;;;4213785;28;20039;-75
2021/08/22 09:44:17;;;;;;;20.63;18.50;;;22.80;99.90;;;;;;4213740;28;20731;-75
2021/08/22 09:46:48;;;;;;;19.58;17.70;;;22.50;99.90;;;;;;4210897;28;20089;-77
2021/08/22 09:49:24;;;;;;;21.77;19.63;;;22.00;99.90;;;;;;4213542;28;20120;-75
2021/08/22 09:51:53;;;;;;;20.67;18.73;;;22.00;99.90;;;;;;4210245;28;20105;-75
2021/08/22 09:54:08;;;;;;;24.17;20.33;;;21.70;99.90;;;;;;4211597;28;20046;-75
2021/08/22 09:56:46;;;;;;;22.90;20.70;;;21.40;99.90;;;;;;4191948;28;20094;-75
2021/08/22 09:59:04;;;;;;;23.40;20.90;;;21.10;99.90;;;;;;4194726;28;20041;-75
2021/08/22 10:01:35;;;;;;;22.75;20.35;;;20.90;99.90;;;;;;4206460;28;20028;-75
2021/08/22 10:04:07;;;;;;;22.23;19.98;;;21.00;99.90;;;;;;4201045;28;20063;-75
2021/08/22 10:06:26;;;;;;;20.95;18.63;;;21.20;99.90;;;;;;4212611;28;20119;-75
2021/08/22 10:08:41;;;;;;;24.38;21.80;;;21.30;99.90;;;;;;4188835;28;20033;-75
2021/08/22 10:10:48;;;;;;;23.58;21.17;;;21.70;99.90;;;;;;4211428;28;20035;-76
2021/08/22 10:12:49;;;;;;;22.33;19.20;;;21.90;99.90;;;;;;4193823;28;20111;-76
2021/08/22 10:14:50;;;;;;;21.38;18.60;;;22.40;99.90;;;;;;4214032;28;20097;-75
2021/08/22 10:16:51;;;;;;;18.45;15.63;;;23.20;99.90;;;;;;4209103;28;20032;-75
2021/08/22 10:18:51;;;;;;;18.00;16.02;;;23.30;99.90;;;;;;4212589;28;20035;-74
2021/08/22 10:21:00;;;;;;;18.70;16.70;;;23.20;99.90;;;;;;4195570;28;20032;-76
2021/08/22 10:23:01;;;;;;;17.65;15.88;;;23.30;99.90;;;;;;4202959;28;20031;-74
2021/08/22 10:25:06;;;;;;;18.48;16.45;;;23.20;99.90;;;;;;4208879;28;20124;-75
2021/08/22 10:27:11;;;;;;;19.15;17.13;;;23.40;99.90;;;;;;4208853;28;20533;-75
2021/08/22 10:29:23;;;;;;;17.75;15.98;;;23.70;99.90;;;;;;4212024;28;20035;-75